createdAt,value
2017-09-14T00:00:28.809Z,953.3
2017-09-14T00:01:38.779Z,953.41
2017-09-14T00:02:48.119Z,953.28
2017-09-14T00:03:56.817Z,953.48
2017-09-14T00:05:06.475Z,953.51
2017-09-14T00:06:15.826Z,953.4
2017-09-14T00:07:25.800Z,953.35
2017-09-14T00:08:34.498Z,953.45
2017-09-14T00:09:44.153Z,953.47
2017-09-14T00:10:54.131Z,953.47
2017-09-14T00:12:03.788Z,953.61
2017-09-14T00:13:12.485Z,953.51
2017-09-14T00:14:21.827Z,953.63
2017-09-14T00:15:31.483Z,953.69
2017-09-14T00:16:40.817Z,953.68
2017-09-14T00:17:50.470Z,953.64
2017-09-14T00:19:00.128Z,953.62
2017-09-14T00:20:09.145Z,953.67
2017-09-14T00:21:18.163Z,953.69
2017-09-14T00:22:27.177Z,953.68
2017-09-14T00:23:35.873Z,953.69
2017-09-14T00:24:45.212Z,953.66
2017-09-14T00:25:54.549Z,953.61
2017-09-14T00:27:03.565Z,953.55
2017-09-14T00:28:12.581Z,953.56
2017-09-14T00:29:21.601Z,953.57
2017-09-14T00:30:30.617Z,953.57
2017-09-14T00:31:39.955Z,953.46
2017-09-14T00:32:48.973Z,953.5
2017-09-14T00:33:57.995Z,953.47
2017-09-14T00:35:07.011Z,953.45
2017-09-14T00:36:16.344Z,953.45
2017-09-14T00:37:26.001Z,953.43
2017-09-14T00:38:34.698Z,953.39
2017-09-14T00:39:43.395Z,953.41
2017-09-14T00:40:52.732Z,953.36
2017-09-14T00:42:02.074Z,953.36
2017-09-14T00:43:11.413Z,953.33
2017-09-14T00:44:20.762Z,953.35
2017-09-14T00:45:30.414Z,953.3
2017-09-14T00:46:40.070Z,953.28
2017-09-14T00:47:48.768Z,953.28
2017-09-14T00:48:57.780Z,953.31
2017-09-14T00:50:06.802Z,953.31
2017-09-14T00:51:15.818Z,953.25
2017-09-14T00:52:24.835Z,953.24
2017-09-14T00:53:34.174Z,953.22
2017-09-14T00:54:43.194Z,953.24
2017-09-14T00:55:52.529Z,953.21
2017-09-14T00:57:01.545Z,953.17
2017-09-14T00:58:10.562Z,953.2
2017-09-14T00:59:19.258Z,953.16
2017-09-14T01:00:27.956Z,953.18
2017-09-14T01:01:36.654Z,953.21
2017-09-14T01:02:45.670Z,953.13
2017-09-14T01:03:54.365Z,953.22
2017-09-14T01:05:04.023Z,953.21
2017-09-14T01:06:12.718Z,953.19
2017-09-14T01:07:21.736Z,953.15
2017-09-14T01:08:31.083Z,953.11
2017-09-14T01:09:40.098Z,953.12
2017-09-14T01:10:49.446Z,953.13
2017-09-14T01:11:58.459Z,953.14
2017-09-14T01:13:07.796Z,953.11
2017-09-14T01:14:17.141Z,953.14
2017-09-14T01:15:26.159Z,953.13
2017-09-14T01:16:35.173Z,953.09
2017-09-14T01:17:44.507Z,953.02
2017-09-14T01:18:53.527Z,953.05
2017-09-14T01:20:02.868Z,953.08
2017-09-14T01:21:12.206Z,953.04
2017-09-14T01:22:21.865Z,953
2017-09-14T01:23:31.199Z,952.99
2017-09-14T01:24:40.541Z,952.96
2017-09-14T01:25:49.872Z,952.93
2017-09-14T01:26:59.205Z,952.94
2017-09-14T01:28:08.541Z,952.93
2017-09-14T01:29:17.877Z,952.95
2017-09-14T01:30:27.211Z,952.95
2017-09-14T01:31:36.229Z,952.96
2017-09-14T01:32:45.887Z,952.96
2017-09-14T01:33:54.933Z,952.99
2017-09-14T01:35:04.927Z,953.01
2017-09-14T01:36:13.943Z,953.01
2017-09-14T01:37:22.958Z,953.08
2017-09-14T01:38:32.609Z,953.14
2017-09-14T01:39:41.623Z,953.12
2017-09-14T01:40:50.636Z,953.13
2017-09-14T01:41:59.652Z,953.16
2017-09-14T01:43:08.988Z,953.14
2017-09-14T01:44:18.647Z,953.11
2017-09-14T01:45:28.302Z,953.12
2017-09-14T01:46:38.280Z,953.16
2017-09-14T01:47:47.619Z,953.18
2017-09-14T01:48:56.314Z,953.11
2017-09-14T01:50:05.649Z,953.11
2017-09-14T01:51:14.665Z,953.23
2017-09-14T01:52:24.003Z,953.23
2017-09-14T01:53:33.018Z,953.34
2017-09-14T01:54:41.717Z,953.29
2017-09-14T01:55:50.413Z,953.27
2017-09-14T01:56:59.111Z,953.38
2017-09-14T01:58:08.126Z,953.39
2017-09-14T01:59:17.142Z,953.46
2017-09-14T02:00:26.157Z,953.48
2017-09-14T02:01:35.494Z,953.52
2017-09-14T02:02:45.149Z,953.57
2017-09-14T02:03:54.164Z,953.54
2017-09-14T02:05:02.863Z,953.56
2017-09-14T02:06:12.194Z,953.6
2017-09-14T02:07:21.212Z,953.59
2017-09-14T02:08:29.906Z,953.62
2017-09-14T02:09:38.606Z,953.62
2017-09-14T02:10:47.937Z,953.58
2017-09-14T02:11:56.953Z,953.54
2017-09-14T02:13:05.966Z,953.46
2017-09-14T02:14:14.984Z,953.42
2017-09-14T02:15:24.635Z,953.37
2017-09-14T02:16:33.334Z,953.36
2017-09-14T02:17:42.993Z,953.36
2017-09-14T02:18:51.689Z,953.35
2017-09-14T02:20:00.708Z,953.33
2017-09-14T02:21:10.045Z,953.25
2017-09-14T02:22:19.060Z,953.29
2017-09-14T02:23:28.393Z,953.2
2017-09-14T02:24:37.727Z,953.18
2017-09-14T02:25:46.742Z,953.14
2017-09-14T02:26:56.395Z,953.11
2017-09-14T02:28:05.411Z,953.16
2017-09-14T02:29:14.106Z,953.05
2017-09-14T02:30:23.442Z,953.03
2017-09-14T02:31:32.456Z,953.02
2017-09-14T02:32:42.109Z,952.99
2017-09-14T02:33:51.124Z,952.98
2017-09-14T02:35:00.143Z,952.99
2017-09-14T02:36:10.117Z,953
2017-09-14T02:37:19.771Z,952.98
2017-09-14T02:38:29.104Z,953.01
2017-09-14T02:39:38.120Z,952.98
2017-09-14T02:40:47.455Z,952.93
2017-09-14T02:41:56.470Z,952.89
2017-09-14T02:43:05.808Z,952.94
2017-09-14T02:44:14.822Z,952.94
2017-09-14T02:45:24.158Z,952.9
2017-09-14T02:46:33.497Z,952.93
2017-09-14T02:47:42.517Z,952.9
2017-09-14T02:48:51.848Z,952.92
2017-09-14T02:50:01.188Z,952.91
2017-09-14T02:51:10.529Z,952.89
2017-09-14T02:52:19.546Z,952.85
2017-09-14T02:53:28.240Z,952.85
2017-09-14T02:54:37.575Z,952.84
2017-09-14T02:55:46.597Z,952.89
2017-09-14T02:56:55.933Z,952.89
2017-09-14T02:58:04.629Z,952.89
2017-09-14T02:59:13.323Z,952.86
2017-09-14T03:00:22.343Z,952.84
2017-09-14T03:01:31.998Z,952.88
2017-09-14T03:02:41.332Z,952.84
2017-09-14T03:03:50.671Z,952.79
2017-09-14T03:05:00.012Z,952.9
2017-09-14T03:06:09.027Z,952.85
2017-09-14T03:07:18.044Z,952.92
2017-09-14T03:08:27.059Z,952.87
2017-09-14T03:09:36.081Z,952.92
2017-09-14T03:10:45.418Z,952.91
2017-09-14T03:11:54.113Z,952.94
2017-09-14T03:13:04.091Z,952.91
2017-09-14T03:14:13.746Z,952.88
2017-09-14T03:15:22.761Z,952.87
2017-09-14T03:16:32.095Z,952.85
2017-09-14T03:17:41.112Z,952.86
2017-09-14T03:18:50.129Z,952.83
2017-09-14T03:19:59.150Z,952.85
2017-09-14T03:21:08.165Z,952.88
2017-09-14T03:22:17.180Z,952.85
2017-09-14T03:23:25.876Z,952.81
2017-09-14T03:24:34.890Z,952.87
2017-09-14T03:25:44.232Z,952.83
2017-09-14T03:26:53.246Z,952.81
2017-09-14T03:28:01.940Z,952.87
2017-09-14T03:29:11.593Z,952.91
2017-09-14T03:30:21.249Z,952.87
2017-09-14T03:31:30.268Z,952.89
2017-09-14T03:32:39.283Z,952.89
2017-09-14T03:33:48.619Z,952.84
2017-09-14T03:34:57.957Z,952.86
2017-09-14T03:36:06.974Z,952.84
2017-09-14T03:37:15.669Z,952.78
2017-09-14T03:38:24.365Z,952.78
2017-09-14T03:39:33.699Z,952.77
2017-09-14T03:40:42.713Z,952.75
2017-09-14T03:41:52.049Z,952.84
2017-09-14T03:43:01.071Z,952.77
2017-09-14T03:44:10.405Z,952.82
2017-09-14T03:45:19.099Z,952.75
2017-09-14T03:46:28.113Z,952.73
2017-09-14T03:47:37.132Z,952.73
2017-09-14T03:48:46.492Z,952.67
2017-09-14T03:49:55.538Z,952.69
2017-09-14T03:51:04.529Z,952.74
2017-09-14T03:52:13.862Z,952.76
2017-09-14T03:53:23.516Z,952.67
2017-09-14T03:54:32.531Z,952.66
2017-09-14T03:55:42.186Z,952.67
2017-09-14T03:56:51.220Z,952.66
2017-09-14T03:58:00.556Z,952.6
2017-09-14T03:59:09.251Z,952.64
2017-09-14T04:00:18.264Z,952.59
2017-09-14T04:01:26.959Z,952.67
2017-09-14T04:02:36.292Z,952.66
2017-09-14T04:03:45.627Z,952.59
2017-09-14T04:04:54.322Z,952.58
2017-09-14T04:06:03.339Z,952.47
2017-09-14T04:07:12.676Z,952.55
2017-09-14T04:08:21.688Z,952.57
2017-09-14T04:09:31.022Z,952.57
2017-09-14T04:10:39.717Z,952.61
2017-09-14T04:11:48.766Z,952.55
2017-09-14T04:12:58.098Z,952.56
2017-09-14T04:14:07.432Z,952.67
2017-09-14T04:15:16.768Z,952.61
2017-09-14T04:16:25.783Z,952.61
2017-09-14T04:17:34.478Z,952.62
2017-09-14T04:18:44.138Z,952.63
2017-09-14T04:19:53.473Z,952.6
2017-09-14T04:21:02.486Z,952.61
2017-09-14T04:22:11.823Z,952.62
2017-09-14T04:23:20.840Z,952.63
2017-09-14T04:24:30.185Z,952.58
2017-09-14T04:25:39.219Z,952.63
2017-09-14T04:26:48.528Z,952.63
2017-09-14T04:27:57.224Z,952.62
2017-09-14T04:29:06.879Z,952.6
2017-09-14T04:30:15.893Z,952.6
2017-09-14T04:31:25.226Z,952.51
2017-09-14T04:32:34.242Z,952.57
2017-09-14T04:33:43.258Z,952.57
2017-09-14T04:34:52.591Z,952.59
2017-09-14T04:36:02.572Z,952.58
2017-09-14T04:37:12.229Z,952.46
2017-09-14T04:38:21.892Z,952.39
2017-09-14T04:39:31.544Z,952.38
2017-09-14T04:40:40.560Z,952.36
2017-09-14T04:41:49.574Z,952.4
2017-09-14T04:42:58.911Z,952.47
2017-09-14T04:44:07.926Z,952.48
2017-09-14T04:45:17.902Z,952.59
2017-09-14T04:46:27.235Z,952.6
2017-09-14T04:47:35.932Z,952.57
2017-09-14T04:48:44.946Z,952.51
2017-09-14T04:49:53.964Z,952.6
2017-09-14T04:51:03.623Z,952.6
2017-09-14T04:52:12.962Z,952.61
2017-09-14T04:53:22.294Z,952.65
2017-09-14T04:54:31.637Z,952.64
2017-09-14T04:55:41.295Z,952.66
2017-09-14T04:56:50.952Z,952.63
2017-09-14T04:57:59.968Z,952.64
2017-09-14T04:59:09.303Z,952.66
2017-09-14T05:00:18.969Z,952.66
2017-09-14T05:01:28.309Z,952.55
2017-09-14T05:02:37.323Z,952.55
2017-09-14T05:03:46.655Z,952.57
2017-09-14T05:04:55.989Z,952.56
2017-09-14T05:06:05.007Z,952.48
2017-09-14T05:07:14.670Z,952.48
2017-09-14T05:08:24.008Z,952.34
2017-09-14T05:09:33.348Z,952.31
2017-09-14T05:10:42.685Z,952.18
2017-09-14T05:11:51.700Z,952.16
2017-09-14T05:13:00.721Z,952.07
2017-09-14T05:14:09.737Z,952
2017-09-14T05:15:19.073Z,951.99
2017-09-14T05:16:28.408Z,951.92
2017-09-14T05:17:38.064Z,951.88
2017-09-14T05:18:47.404Z,951.82
2017-09-14T05:19:56.098Z,951.84
2017-09-14T05:21:06.079Z,951.83
2017-09-14T05:22:16.062Z,951.88
2017-09-14T05:23:25.074Z,951.98
2017-09-14T05:24:33.773Z,952.17
2017-09-14T05:25:42.789Z,952.27
2017-09-14T05:26:51.801Z,952.34
2017-09-14T05:28:00.816Z,952.39
2017-09-14T05:29:09.832Z,952.29
2017-09-14T05:30:18.848Z,952.19
2017-09-14T05:31:28.184Z,952.17
2017-09-14T05:32:37.526Z,952.16
2017-09-14T05:33:46.542Z,952.25
2017-09-14T05:34:55.559Z,952.3
2017-09-14T05:36:04.254Z,952.34
2017-09-14T05:37:13.270Z,952.25
2017-09-14T05:38:22.287Z,952.27
2017-09-14T05:39:31.623Z,952.29
2017-09-14T05:40:40.959Z,952.43
2017-09-14T05:41:50.293Z,952.41
2017-09-14T05:42:59.628Z,952.31
2017-09-14T05:44:08.647Z,952.24
2017-09-14T05:45:17.983Z,952.27
2017-09-14T05:46:27.001Z,952.35
2017-09-14T05:47:36.018Z,952.44
2017-09-14T05:48:45.353Z,952.49
2017-09-14T05:49:54.685Z,952.47
2017-09-14T05:51:03.380Z,952.48
2017-09-14T05:52:12.397Z,952.51
2017-09-14T05:53:21.407Z,952.53
2017-09-14T05:54:30.422Z,952.36
2017-09-14T05:55:39.116Z,952.26
2017-09-14T05:56:48.452Z,952.21
2017-09-14T05:57:57.467Z,952.35
2017-09-14T05:59:07.117Z,952.37
2017-09-14T06:00:16.451Z,952.41
2017-09-14T06:01:26.103Z,952.38
2017-09-14T06:02:35.764Z,952.34
2017-09-14T06:03:45.428Z,952.33
2017-09-14T06:04:54.762Z,952.28
2017-09-14T06:06:04.097Z,952.36
2017-09-14T06:07:13.119Z,952.42
2017-09-14T06:08:22.774Z,952.45
2017-09-14T06:09:31.791Z,952.28
2017-09-14T06:10:40.484Z,952.22
2017-09-14T06:11:49.822Z,952.17
2017-09-14T06:12:59.495Z,952.11
2017-09-14T06:14:09.153Z,952.04
2017-09-14T06:15:18.172Z,952.05
2017-09-14T06:16:28.469Z,952.14
2017-09-14T06:17:37.803Z,952.34
2017-09-14T06:18:46.820Z,952.4
2017-09-14T06:19:56.475Z,952.49
2017-09-14T06:21:05.495Z,952.46
2017-09-14T06:22:14.508Z,952.43
2017-09-14T06:23:24.161Z,952.45
2017-09-14T06:24:32.859Z,952.43
2017-09-14T06:25:42.195Z,952.41
2017-09-14T06:26:52.493Z,952.35
2017-09-14T06:28:01.507Z,952.27
2017-09-14T06:29:10.522Z,952.35
2017-09-14T06:30:19.862Z,952.44
2017-09-14T06:31:28.877Z,952.2
2017-09-14T06:32:38.212Z,952.05
2017-09-14T06:33:47.226Z,952.08
2017-09-14T06:34:56.246Z,952.34
2017-09-14T06:36:04.940Z,952.56
2017-09-14T06:37:14.636Z,952.72
2017-09-14T06:38:23.332Z,952.65
2017-09-14T06:39:32.986Z,952.4
2017-09-14T06:40:42.002Z,952.24
2017-09-14T06:41:51.659Z,952.28
2017-09-14T06:43:00.993Z,952.29
2017-09-14T06:44:09.691Z,952.35
2017-09-14T06:45:18.706Z,952.27
2017-09-14T06:46:27.400Z,952.21
2017-09-14T06:47:36.758Z,952.34
2017-09-14T06:48:46.738Z,952.52
2017-09-14T06:49:56.081Z,952.58
2017-09-14T06:51:05.415Z,952.47
2017-09-14T06:52:14.444Z,952.43
2017-09-14T06:53:24.099Z,952.39
2017-09-14T06:54:32.793Z,952.31
2017-09-14T06:55:42.132Z,952.12
2017-09-14T06:56:51.786Z,952.08
2017-09-14T06:58:01.118Z,952.07
2017-09-14T06:59:10.134Z,952.05
2017-09-14T07:00:19.148Z,952.07
2017-09-14T07:01:27.847Z,952.11
2017-09-14T07:02:36.861Z,952.09
2017-09-14T07:03:46.194Z,952.05
2017-09-14T07:04:55.209Z,952.1
2017-09-14T07:06:03.904Z,952.18
2017-09-14T07:07:13.561Z,952.05
2017-09-14T07:08:22.919Z,951.94
2017-09-14T07:09:32.255Z,951.91
2017-09-14T07:10:41.593Z,951.98
2017-09-14T07:11:50.292Z,952.07
2017-09-14T07:12:59.949Z,952.05
2017-09-14T07:14:08.645Z,952.17
2017-09-14T07:15:17.341Z,952.21
2017-09-14T07:16:26.039Z,952.22
2017-09-14T07:17:35.057Z,952.17
2017-09-14T07:18:45.070Z,952.15
2017-09-14T07:19:54.408Z,952.13
2017-09-14T07:21:03.745Z,952.15
2017-09-14T07:22:13.400Z,952.13
2017-09-14T07:23:22.737Z,952.13
2017-09-14T07:24:31.750Z,952.21
2017-09-14T07:25:41.408Z,952.18
2017-09-14T07:26:50.102Z,952.13
2017-09-14T07:27:59.119Z,952.18
2017-09-14T07:29:08.453Z,952.31
2017-09-14T07:30:17.785Z,952.4
2017-09-14T07:31:26.803Z,952.45
2017-09-14T07:32:36.464Z,952.4
2017-09-14T07:33:46.117Z,952.35
2017-09-14T07:34:55.132Z,952.37
2017-09-14T07:36:04.471Z,952.42
2017-09-14T07:37:13.490Z,952.48
2017-09-14T07:38:22.828Z,952.47
2017-09-14T07:39:31.845Z,952.58
2017-09-14T07:40:41.823Z,952.66
2017-09-14T07:41:51.170Z,952.67
2017-09-14T07:43:00.509Z,952.65
2017-09-14T07:44:09.211Z,952.64
2017-09-14T07:45:18.227Z,952.64
2017-09-14T07:46:27.244Z,952.58
2017-09-14T07:47:36.265Z,952.61
2017-09-14T07:48:45.285Z,952.61
2017-09-14T07:49:54.666Z,952.65
2017-09-14T07:51:03.364Z,952.68
2017-09-14T07:52:12.708Z,952.71
2017-09-14T07:53:21.411Z,952.75
2017-09-14T07:54:30.748Z,952.82
2017-09-14T07:55:39.763Z,952.84
2017-09-14T07:56:49.416Z,952.88
2017-09-14T07:57:58.752Z,952.88
2017-09-14T07:59:08.089Z,952.86
2017-09-14T08:00:17.423Z,952.94
2017-09-14T08:01:26.117Z,953
2017-09-14T08:02:35.452Z,952.94
2017-09-14T08:03:44.468Z,953
2017-09-14T08:04:53.808Z,952.99
2017-09-14T08:06:03.144Z,953.03
2017-09-14T08:07:12.478Z,953.03
2017-09-14T08:08:21.177Z,953.02
2017-09-14T08:09:31.153Z,953.04
2017-09-14T08:10:40.170Z,953.04
2017-09-14T08:11:49.509Z,953.03
2017-09-14T08:12:58.528Z,953.01
2017-09-14T08:14:08.182Z,952.98
2017-09-14T08:15:17.522Z,952.91
2017-09-14T08:16:26.904Z,953
2017-09-14T08:17:35.601Z,952.99
2017-09-14T08:18:45.260Z,953.01
2017-09-14T08:19:54.278Z,953.06
2017-09-14T08:21:03.617Z,952.96
2017-09-14T08:22:12.965Z,952.91
2017-09-14T08:23:22.307Z,952.97
2017-09-14T08:24:31.323Z,953.02
2017-09-14T08:25:40.340Z,953.02
2017-09-14T08:26:49.682Z,953.01
2017-09-14T08:27:59.020Z,952.98
2017-09-14T08:29:08.356Z,953.02
2017-09-14T08:30:17.371Z,953.06
2017-09-14T08:31:26.706Z,952.96
2017-09-14T08:32:35.721Z,952.99
2017-09-14T08:33:44.738Z,953.01
2017-09-14T08:34:54.395Z,953.07
2017-09-14T08:36:03.411Z,953.06
2017-09-14T08:37:12.431Z,953.06
2017-09-14T08:38:21.766Z,953.03
2017-09-14T08:39:31.104Z,953.1
2017-09-14T08:40:39.800Z,953.23
2017-09-14T08:41:49.495Z,953.17
2017-09-14T08:42:58.838Z,953.11
2017-09-14T08:44:08.179Z,953.08
2017-09-14T08:45:17.515Z,953.31
2017-09-14T08:46:26.851Z,953.19
2017-09-14T08:47:36.187Z,953.19
2017-09-14T08:48:45.837Z,953.16
2017-09-14T08:49:55.172Z,953.22
2017-09-14T08:51:05.146Z,953.16
2017-09-14T08:52:14.803Z,953.29
2017-09-14T08:53:24.139Z,953.17
2017-09-14T08:54:33.164Z,953.18
2017-09-14T08:55:42.501Z,953.31
2017-09-14T08:56:51.513Z,953.25
2017-09-14T08:58:01.165Z,953.21
2017-09-14T08:59:10.186Z,953.23
2017-09-14T09:00:19.202Z,953.27
2017-09-14T09:01:27.897Z,953.26
2017-09-14T09:02:36.593Z,953.29
2017-09-14T09:03:45.936Z,953.27
2017-09-14T09:04:55.270Z,953.34
2017-09-14T09:06:04.607Z,953.31
2017-09-14T09:07:13.944Z,953.39
2017-09-14T09:08:22.959Z,953.34
2017-09-14T09:09:31.984Z,953.34
2017-09-14T09:10:41.322Z,953.33
2017-09-14T09:11:50.657Z,953.27
2017-09-14T09:12:59.998Z,953.32
2017-09-14T09:14:09.658Z,953.36
2017-09-14T09:15:18.353Z,953.33
2017-09-14T09:16:28.009Z,953.39
2017-09-14T09:17:37.028Z,953.38
2017-09-14T09:18:46.365Z,953.35
2017-09-14T09:19:55.705Z,953.42
2017-09-14T09:21:05.372Z,953.34
2017-09-14T09:22:14.709Z,953.41
2017-09-14T09:23:24.368Z,953.49
2017-09-14T09:24:33.385Z,953.57
2017-09-14T09:25:42.080Z,953.43
2017-09-14T09:26:51.416Z,953.47
2017-09-14T09:28:01.392Z,953.52
2017-09-14T09:29:10.088Z,953.52
2017-09-14T09:30:19.105Z,953.52
2017-09-14T09:31:28.774Z,953.58
2017-09-14T09:32:38.425Z,953.66
2017-09-14T09:33:47.442Z,953.67
2017-09-14T09:34:57.101Z,953.68
2017-09-14T09:36:05.797Z,953.53
2017-09-14T09:37:14.812Z,953.58
2017-09-14T09:38:23.510Z,953.62
2017-09-14T09:39:33.486Z,953.63
2017-09-14T09:40:42.822Z,953.64
2017-09-14T09:41:51.520Z,953.59
2017-09-14T09:43:01.185Z,953.6
2017-09-14T09:44:10.524Z,953.62
2017-09-14T09:45:19.550Z,953.66
2017-09-14T09:46:28.574Z,953.71
2017-09-14T09:47:37.912Z,953.77
2017-09-14T09:48:47.570Z,953.67
2017-09-14T09:49:56.266Z,953.73
2017-09-14T09:51:05.609Z,953.71
2017-09-14T09:52:14.950Z,953.74
2017-09-14T09:53:23.651Z,953.77
2017-09-14T09:54:32.668Z,953.84
2017-09-14T09:55:41.687Z,953.81
2017-09-14T09:56:50.708Z,953.8
2017-09-14T09:57:59.405Z,953.76
2017-09-14T09:59:08.426Z,953.87
2017-09-14T10:00:17.761Z,953.84
2017-09-14T10:01:26.787Z,953.9
2017-09-14T10:02:36.441Z,953.83
2017-09-14T10:03:45.778Z,953.86
2017-09-14T10:04:54.797Z,953.88
2017-09-14T10:06:04.138Z,953.89
2017-09-14T10:07:12.856Z,953.92
2017-09-14T10:08:22.522Z,953.92
2017-09-14T10:09:31.539Z,953.87
2017-09-14T10:10:41.516Z,953.89
2017-09-14T10:11:50.531Z,953.9
2017-09-14T10:12:59.549Z,953.88
2017-09-14T10:14:08.565Z,953.88
2017-09-14T10:15:18.260Z,953.9
2017-09-14T10:16:27.596Z,953.9
2017-09-14T10:17:36.625Z,953.98
2017-09-14T10:18:46.600Z,953.99
2017-09-14T10:19:55.619Z,954.01
2017-09-14T10:21:04.644Z,954.02
2017-09-14T10:22:13.666Z,954.13
2017-09-14T10:23:23.008Z,954.03
2017-09-14T10:24:33.304Z,954.06
2017-09-14T10:25:42.637Z,954.12
2017-09-14T10:26:51.662Z,954.13
2017-09-14T10:28:00.995Z,954.23
2017-09-14T10:29:10.331Z,954.2
2017-09-14T10:30:19.345Z,954.17
2017-09-14T10:31:28.363Z,954.18
2017-09-14T10:32:38.017Z,954.2
2017-09-14T10:33:47.036Z,954.26
2017-09-14T10:34:56.054Z,954.22
2017-09-14T10:36:05.078Z,954.26
2017-09-14T10:37:14.097Z,954.37
2017-09-14T10:38:23.116Z,954.39
2017-09-14T10:39:32.451Z,954.34
2017-09-14T10:40:41.793Z,954.42
2017-09-14T10:41:51.138Z,954.41
2017-09-14T10:43:00.471Z,954.52
2017-09-14T10:44:09.810Z,954.53
2017-09-14T10:45:19.147Z,954.49
2017-09-14T10:46:28.497Z,954.56
2017-09-14T10:47:38.794Z,954.51
2017-09-14T10:48:47.491Z,954.58
2017-09-14T10:49:56.827Z,954.56
2017-09-14T10:51:05.845Z,954.56
2017-09-14T10:52:15.179Z,954.55
2017-09-14T10:53:23.876Z,954.6
2017-09-14T10:54:33.529Z,954.64
2017-09-14T10:55:42.230Z,954.65
2017-09-14T10:56:51.245Z,954.62
2017-09-14T10:58:01.221Z,954.65
2017-09-14T10:59:10.569Z,954.61
2017-09-14T11:00:19.590Z,954.77
2017-09-14T11:01:28.608Z,954.8
2017-09-14T11:02:37.625Z,954.76
2017-09-14T11:03:46.963Z,954.75
2017-09-14T11:04:55.977Z,954.78
2017-09-14T11:06:05.321Z,954.8
2017-09-14T11:07:14.339Z,954.86
2017-09-14T11:08:23.360Z,954.82
2017-09-14T11:09:32.376Z,954.93
2017-09-14T11:10:41.078Z,954.77
2017-09-14T11:11:50.422Z,954.79
2017-09-14T11:13:00.085Z,954.76
2017-09-14T11:14:09.107Z,954.77
2017-09-14T11:15:18.449Z,954.77
2017-09-14T11:16:27.787Z,954.89
2017-09-14T11:17:36.807Z,954.81
2017-09-14T11:18:46.145Z,954.76
2017-09-14T11:19:55.168Z,954.85
2017-09-14T11:21:04.507Z,954.79
2017-09-14T11:22:13.207Z,954.8
2017-09-14T11:23:22.226Z,954.89
2017-09-14T11:24:31.562Z,954.86
2017-09-14T11:25:40.582Z,954.8
2017-09-14T11:26:49.923Z,954.79
2017-09-14T11:27:59.898Z,954.86
2017-09-14T11:29:09.237Z,954.91
2017-09-14T11:30:17.939Z,954.9
2017-09-14T11:31:26.639Z,954.86
2017-09-14T11:32:36.296Z,954.9
2017-09-14T11:33:45.318Z,954.88
2017-09-14T11:34:54.335Z,954.93
2017-09-14T11:36:03.994Z,954.94
2017-09-14T11:37:12.694Z,954.99
2017-09-14T11:38:22.030Z,955.02
2017-09-14T11:39:32.010Z,955.09
2017-09-14T11:40:40.707Z,955.04
2017-09-14T11:41:50.045Z,955
2017-09-14T11:43:00.031Z,955.01
2017-09-14T11:44:09.691Z,955.03
2017-09-14T11:45:19.031Z,955.04
2017-09-14T11:46:28.371Z,955.17
2017-09-14T11:47:37.388Z,955.16
2017-09-14T11:48:46.423Z,955.2
2017-09-14T11:49:55.768Z,955.36
2017-09-14T11:51:05.746Z,955.4
2017-09-14T11:52:15.089Z,955.5
2017-09-14T11:53:24.108Z,955.45
2017-09-14T11:54:33.130Z,955.58
2017-09-14T11:55:41.828Z,955.56
2017-09-14T11:56:51.484Z,955.58
2017-09-14T11:58:00.824Z,955.17
2017-09-14T11:59:09.844Z,955.03
2017-09-14T12:00:19.183Z,955.09
2017-09-14T12:01:28.844Z,955.04
2017-09-14T12:02:37.865Z,955.07
2017-09-14T12:03:46.885Z,955.08
2017-09-14T12:04:56.224Z,955.13
2017-09-14T12:06:04.925Z,955.06
2017-09-14T12:07:13.627Z,955.11
2017-09-14T12:08:23.285Z,955.11
2017-09-14T12:09:32.625Z,955.08
2017-09-14T12:10:42.287Z,955.15
2017-09-14T12:11:51.628Z,955.13
2017-09-14T12:13:00.645Z,955.22
2017-09-14T12:14:09.663Z,955.12
2017-09-14T12:15:19.327Z,955.22
2017-09-14T12:16:28.986Z,955.11
2017-09-14T12:17:38.324Z,955.11
2017-09-14T12:18:47.663Z,955.14
2017-09-14T12:19:57.002Z,955.09
2017-09-14T12:21:06.338Z,955.09
2017-09-14T12:22:15.358Z,955.09
2017-09-14T12:23:24.697Z,955.06
2017-09-14T12:24:33.715Z,955.15
2017-09-14T12:25:42.735Z,955.1
2017-09-14T12:26:51.757Z,955.15
2017-09-14T12:28:01.093Z,955.16
2017-09-14T12:29:09.796Z,955.21
2017-09-14T12:30:18.816Z,955.34
2017-09-14T12:31:27.835Z,955.22
2017-09-14T12:32:36.851Z,955.19
2017-09-14T12:33:45.551Z,955.19
2017-09-14T12:34:54.568Z,955.26
2017-09-14T12:36:03.583Z,955.37
2017-09-14T12:37:12.286Z,955.37
2017-09-14T12:38:21.637Z,955.29
2017-09-14T12:39:30.979Z,955.36
2017-09-14T12:40:40.636Z,955.32
2017-09-14T12:41:49.338Z,955.33
2017-09-14T12:42:58.674Z,955.33
2017-09-14T12:44:07.372Z,955.36
2017-09-14T12:45:16.711Z,955.36
2017-09-14T12:46:26.371Z,955.36
2017-09-14T12:47:35.708Z,955.35
2017-09-14T12:48:45.365Z,955.38
2017-09-14T12:49:54.386Z,955.36
2017-09-14T12:51:03.403Z,955.44
2017-09-14T12:52:12.746Z,955.73
2017-09-14T12:53:21.765Z,955.93
2017-09-14T12:54:31.099Z,956.2
2017-09-14T12:55:40.117Z,956.14
2017-09-14T12:56:49.457Z,956.24
2017-09-14T12:57:59.113Z,956.18
2017-09-14T12:59:08.135Z,956.12
2017-09-14T13:00:17.153Z,956.05
2017-09-14T13:01:26.173Z,956.08
2017-09-14T13:02:35.190Z,956.04
2017-09-14T13:03:44.846Z,956.05
2017-09-14T13:04:53.863Z,956.02
2017-09-14T13:06:02.561Z,956
2017-09-14T13:07:12.222Z,955.96
2017-09-14T13:08:21.885Z,955.9
2017-09-14T13:09:30.905Z,955.88
2017-09-14T13:10:39.924Z,955.92
2017-09-14T13:11:48.943Z,955.81
2017-09-14T13:12:58.277Z,955.81
2017-09-14T13:14:07.297Z,955.79
2017-09-14T13:15:16.323Z,955.79
2017-09-14T13:16:25.340Z,955.76
2017-09-14T13:17:34.683Z,955.87
2017-09-14T13:18:43.698Z,955.85
2017-09-14T13:19:52.395Z,955.79
2017-09-14T13:21:01.742Z,955.82
2017-09-14T13:22:11.409Z,955.81
2017-09-14T13:23:21.064Z,955.77
2017-09-14T13:24:30.084Z,955.76
2017-09-14T13:25:39.434Z,955.74
2017-09-14T13:26:48.450Z,955.72
2017-09-14T13:27:57.789Z,955.71
2017-09-14T13:29:07.127Z,955.7
2017-09-14T13:30:16.468Z,955.67
2017-09-14T13:31:25.807Z,955.67
2017-09-14T13:32:35.800Z,955.73
2017-09-14T13:33:44.496Z,955.64
2017-09-14T13:34:53.840Z,955.59
2017-09-14T13:36:02.858Z,955.68
2017-09-14T13:37:11.880Z,955.72
2017-09-14T13:38:20.891Z,955.7
2017-09-14T13:39:30.554Z,955.65
2017-09-14T13:40:39.572Z,955.64
2017-09-14T13:41:48.591Z,955.62
2017-09-14T13:42:57.928Z,955.62
2017-09-14T13:44:06.628Z,955.67
2017-09-14T13:45:15.325Z,955.68
2017-09-14T13:46:24.660Z,955.69
2017-09-14T13:47:33.993Z,955.72
2017-09-14T13:48:43.011Z,955.66
2017-09-14T13:49:52.666Z,955.82
2017-09-14T13:51:01.364Z,955.84
2017-09-14T13:52:10.061Z,955.68
2017-09-14T13:53:19.077Z,955.66
2017-09-14T13:54:28.736Z,955.76
2017-09-14T13:55:37.753Z,955.7
2017-09-14T13:56:46.772Z,955.64
2017-09-14T13:57:55.790Z,955.65
2017-09-14T13:59:05.129Z,955.68
2017-09-14T14:00:14.144Z,955.74
2017-09-14T14:01:23.168Z,955.72
2017-09-14T14:02:32.185Z,955.76
2017-09-14T14:03:40.884Z,955.7
2017-09-14T14:04:49.904Z,955.73
2017-09-14T14:05:59.241Z,955.75
2017-09-14T14:07:08.898Z,955.61
2017-09-14T14:08:17.916Z,955.77
2017-09-14T14:09:27.578Z,955.71
2017-09-14T14:10:36.915Z,955.72
2017-09-14T14:11:46.572Z,955.8
2017-09-14T14:12:55.909Z,955.85
2017-09-14T14:14:05.566Z,955.89
2017-09-14T14:15:14.586Z,955.91
2017-09-14T14:16:23.925Z,955.97
2017-09-14T14:17:33.259Z,955.87
2017-09-14T14:18:42.275Z,955.93
2017-09-14T14:19:51.289Z,956.03
2017-09-14T14:21:00.315Z,956.04
2017-09-14T14:22:09.330Z,955.96
2017-09-14T14:23:18.025Z,956
2017-09-14T14:24:27.044Z,955.98
2017-09-14T14:25:36.059Z,956.02